Time;durP1;ratioP1;P1;durP2;ratioP2;P2;SDS_P1;SDS_P2;PMS_P1;PMS_P2;Temp;Humidity;BMP_temperature;BMP_pressure;BME280_temperature;BME280_humidity;BME280_pressure;Samples;Min_cycle;Max_cycle;Signal;HPM_P1;HPM_P2
2023/07/26 00:00:21;;;;;;;11.15;2.83;;;25.10;96.70;;;;;;5082601;28;20044;-82
2023/07/26 00:02:50;;;;;;;10.93;2.85;;;25.10;96.70;;;;;;5086810;28;20410;-82
2023/07/26 00:05:18;;;;;;;8.93;2.70;;;24.90;96.70;;;;;;5073340;28;20047;-82
2023/07/26 00:07:46;;;;;;;12.95;3.22;;;25.00;96.70;;;;;;5075643;28;20040;-81
2023/07/26 00:10:14;;;;;;;12.25;3.08;;;25.00;96.70;;;;;;5085171;28;20117;-82
2023/07/26 00:12:42;;;;;;;11.65;3.05;;;25.00;96.70;;;;;;5080517;28;20040;-82
2023/07/26 00:15:12;;;;;;;16.75;3.33;;;25.00;96.70;;;;;;5080160;28;20059;-82
2023/07/26 00:17:40;;;;;;;14.68;3.20;;;24.90;96.70;;;;;;5072092;28;20044;-82
2023/07/26 00:20:09;;;;;;;11.90;2.88;;;24.90;96.70;;;;;;5070781;28;20053;-82
2023/07/26 00:22:37;;;;;;;12.95;2.97;;;24.80;96.70;;;;;;5067558;28;20094;-82
2023/07/26 00:25:06;;;;;;;13.65;3.50;;;24.70;96.70;;;;;;5052544;28;20052;-83
2023/07/26 00:27:35;;;;;;;7.93;2.80;;;24.70;96.70;;;;;;5052879;28;20105;-82
2023/07/26 00:30:05;;;;;;;11.35;3.13;;;24.70;96.70;;;;;;5056675;28;20136;-82
2023/07/26 00:32:35;;;;;;;13.63;3.08;;;24.70;96.70;;;;;;5053456;28;20048;-83
2023/07/26 00:35:04;;;;;;;13.32;3.10;;;24.60;96.70;;;;;;5069142;28;20399;-82
2023/07/26 00:37:32;;;;;;;11.68;3.17;;;24.50;96.70;;;;;;5071679;28;20070;-82
2023/07/26 00:40:00;;;;;;;11.32;2.88;;;24.60;96.70;;;;;;5070363;28;20059;-82
2023/07/26 00:42:30;;;;;;;8.10;2.60;;;24.70;96.70;;;;;;5065700;28;20040;-82
2023/07/26 00:44:58;;;;;;;10.93;2.50;;;24.70;96.70;;;;;;5057497;28;20047;-82
2023/07/26 00:47:26;;;;;;;13.60;3.10;;;24.70;96.70;;;;;;5066877;28;20056;-81
2023/07/26 00:49:56;;;;;;;10.30;2.85;;;24.70;96.70;;;;;;5085533;28;20064;-82
2023/07/26 00:52:25;;;;;;;12.45;2.85;;;24.70;96.70;;;;;;5084981;28;20105;-83
2023/07/26 00:54:56;;;;;;;15.15;2.97;;;24.70;96.70;;;;;;5076341;28;20093;-82
2023/07/26 00:57:27;;;;;;;11.05;2.70;;;24.50;96.70;;;;;;5069864;28;20127;-82
2023/07/26 00:59:55;;;;;;;7.68;2.47;;;24.40;96.70;;;;;;5067059;28;20049;-82
2023/07/26 01:02:23;;;;;;;9.85;2.25;;;24.30;96.70;;;;;;5052304;28;20036;-82
2023/07/26 01:04:52;;;;;;;12.32;2.92;;;24.20;96.70;;;;;;5058993;28;20055;-82
2023/07/26 01:07:28;;;;;;;11.30;2.83;;;24.10;96.70;;;;;;5070346;28;20648;-82
2023/07/26 01:10:07;;;;;;;12.35;2.90;;;24.00;96.70;;;;;;5075148;28;20045;-83
2023/07/26 01:12:40;;;;;;;13.80;2.78;;;24.00;96.70;;;;;;5077760;28;20072;-83
2023/07/26 01:15:12;;;;;;;12.20;2.47;;;24.00;96.70;;;;;;5065504;28;20048;-82
2023/07/26 01:17:41;;;;;;;8.50;2.30;;;24.10;96.70;;;;;;5052497;28;20080;-82
2023/07/26 01:20:12;;;;;;;14.15;2.40;;;24.20;96.70;;;;;;5065907;28;20063;-82
2023/07/26 01:22:42;;;;;;;9.05;1.85;;;24.20;96.70;;;;;;5100904;28;20063;-82
2023/07/26 01:25:10;;;;;;;8.18;1.90;;;24.20;96.70;;;;;;5076035;28;20417;-82
2023/07/26 01:27:38;;;;;;;9.95;2.80;;;24.30;96.70;;;;;;5086384;28;20044;-82
2023/07/26 01:30:07;;;;;;;11.93;2.17;;;24.30;96.70;;;;;;5067978;28;20166;-82
2023/07/26 01:32:38;;;;;;;7.88;2.53;;;24.30;96.70;;;;;;5066792;28;20511;-83
2023/07/26 01:35:07;;;;;;;8.00;2.28;;;24.40;96.70;;;;;;5075826;28;20055;-82
2023/07/26 01:37:37;;;;;;;11.32;1.88;;;24.50;96.70;;;;;;5072421;28;20055;-82
2023/07/26 01:40:09;;;;;;;11.60;2.80;;;24.70;96.70;;;;;;5084641;28;20056;-82
2023/07/26 01:42:38;;;;;;;8.13;2.42;;;24.70;96.70;;;;;;5061507;28;20517;-82
2023/07/26 01:45:09;;;;;;;7.75;2.03;;;24.80;96.70;;;;;;5083920;28;20047;-82
2023/07/26 01:47:37;;;;;;;9.30;2.33;;;24.90;96.70;;;;;;5068645;28;20070;-82
2023/07/26 01:50:06;;;;;;;10.07;2.67;;;25.00;96.70;;;;;;5084232;28;21373;-82
2023/07/26 01:52:35;;;;;;;7.18;2.10;;;24.90;96.70;;;;;;5051766;28;20056;-82
2023/07/26 01:55:03;;;;;;;8.05;2.47;;;24.70;96.70;;;;;;5057239;28;20568;-82
2023/07/26 01:57:33;;;;;;;10.90;2.30;;;24.70;96.70;;;;;;5079863;28;20097;-82
2023/07/26 02:00:02;;;;;;;9.27;2.50;;;24.60;96.70;;;;;;5068269;28;20052;-82
2023/07/26 02:02:39;;;;;;;10.05;2.17;;;24.60;96.70;;;;;;5086499;28;20587;-82
2023/07/26 02:05:08;;;;;;;12.25;2.95;;;24.60;96.70;;;;;;5072172;28;20105;-80
2023/07/26 02:07:37;;;;;;;8.18;2.30;;;24.70;96.70;;;;;;5083565;28;20043;-80
2023/07/26 02:10:06;;;;;;;8.85;2.30;;;24.70;96.70;;;;;;5069785;28;20056;-79
2023/07/26 02:12:37;;;;;;;11.15;2.50;;;24.70;96.70;;;;;;5071665;28;20450;-79
2023/07/26 02:15:08;;;;;;;8.38;2.20;;;24.70;96.70;;;;;;5048890;28;20062;-80
2023/07/26 02:17:36;;;;;;;8.23;1.92;;;24.70;96.70;;;;;;5048373;28;20048;-80
2023/07/26 02:20:06;;;;;;;11.15;2.22;;;24.70;96.70;;;;;;5045045;28;20036;-79
2023/07/26 02:22:35;;;;;;;10.68;2.25;;;24.80;96.70;;;;;;5081628;28;20047;-80
2023/07/26 02:25:04;;;;;;;11.20;2.88;;;24.70;96.70;;;;;;5085405;28;20044;-81
2023/07/26 02:27:32;;;;;;;10.38;2.20;;;24.70;96.70;;;;;;5101815;28;20094;-80
2023/07/26 02:30:02;;;;;;;10.48;2.50;;;24.70;96.70;;;;;;5063475;28;20067;-80
2023/07/26 02:32:30;;;;;;;9.68;2.83;;;24.80;96.70;;;;;;5055476;28;20075;-79
2023/07/26 02:34:58;;;;;;;9.57;2.22;;;24.80;96.70;;;;;;5053404;28;20098;-81
2023/07/26 02:37:27;;;;;;;8.90;2.45;;;24.70;96.70;;;;;;5067896;28;20058;-79
2023/07/26 02:39:55;;;;;;;11.45;2.33;;;24.70;96.70;;;;;;5075906;28;20044;-81
2023/07/26 02:42:25;;;;;;;11.15;2.38;;;24.70;96.70;;;;;;5060654;28;20048;-80
2023/07/26 02:44:54;;;;;;;9.70;2.30;;;24.70;96.70;;;;;;5071228;28;20040;-79
2023/07/26 02:47:24;;;;;;;6.85;2.17;;;24.70;96.70;;;;;;5085543;28;20062;-80
2023/07/26 02:49:52;;;;;;;10.00;2.78;;;24.60;96.70;;;;;;5068347;28;20040;-79
2023/07/26 02:52:20;;;;;;;10.13;2.70;;;24.60;96.70;;;;;;5052115;28;20043;-80
2023/07/26 02:54:48;;;;;;;13.05;2.30;;;24.60;96.70;;;;;;5068542;28;20075;-80
2023/07/26 02:57:17;;;;;;;10.40;2.42;;;24.60;96.70;;;;;;5065935;28;20048;-80
2023/07/26 02:59:45;;;;;;;8.90;2.42;;;24.60;96.70;;;;;;5051890;28;20056;-79
2023/07/26 03:02:13;;;;;;;7.68;2.33;;;24.50;96.70;;;;;;5067609;28;20401;-79
2023/07/26 03:04:43;;;;;;;7.60;2.00;;;24.50;96.70;;;;;;5067192;28;20130;-80
2023/07/26 03:07:11;;;;;;;8.13;2.05;;;24.30;96.70;;;;;;5080453;28;20401;-79
2023/07/26 03:09:39;;;;;;;9.27;2.10;;;24.10;96.70;;;;;;5075779;28;20047;-79
2023/07/26 03:12:08;;;;;;;9.77;2.20;;;24.10;96.70;;;;;;5067594;28;20048;-79
2023/07/26 03:14:40;;;;;;;9.65;2.58;;;24.10;96.70;;;;;;5076701;28;20466;-79
2023/07/26 03:17:09;;;;;;;8.13;2.45;;;24.10;96.70;;;;;;5067241;28;20084;-81
2023/07/26 03:19:50;;;;;;;9.88;2.00;;;24.10;96.70;;;;;;5071153;28;20623;-79
2023/07/26 03:22:19;;;;;;;9.70;2.20;;;24.00;96.70;;;;;;5068399;28;20036;-80
2023/07/26 03:24:47;;;;;;;10.15;2.10;;;23.90;96.70;;;;;;5089138;27;20421;-79
2023/07/26 03:27:15;;;;;;;7.57;2.05;;;24.00;96.70;;;;;;5058518;28;20635;-79
2023/07/26 03:29:43;;;;;;;10.30;2.30;;;24.10;96.70;;;;;;5067506;28;20047;-79
2023/07/26 03:32:12;;;;;;;11.48;2.53;;;24.10;96.70;;;;;;5085725;28;20428;-80
2023/07/26 03:34:41;;;;;;;9.32;2.58;;;24.10;96.70;;;;;;5062755;28;20091;-79
2023/07/26 03:37:11;;;;;;;10.05;2.45;;;24.10;96.70;;;;;;5065232;28;20040;-80
2023/07/26 03:39:41;;;;;;;7.60;1.85;;;24.00;96.70;;;;;;5085665;28;20139;-80
2023/07/26 03:42:09;;;;;;;14.38;1.77;;;23.90;96.70;;;;;;5073485;28;20739;-80
2023/07/26 03:44:37;;;;;;;7.53;1.92;;;23.90;96.70;;;;;;5051185;28;20082;-80
2023/07/26 03:47:09;;;;;;;7.18;1.63;;;23.80;96.70;;;;;;5059133;28;20532;-80
2023/07/26 03:49:40;;;;;;;10.02;2.30;;;23.80;96.70;;;;;;5051526;28;20603;-81
2023/07/26 03:52:10;;;;;;;7.30;2.22;;;23.80;96.70;;;;;;5064298;28;20553;-80
2023/07/26 03:54:38;;;;;;;10.35;2.50;;;23.80;96.70;;;;;;5066640;28;20039;-79
2023/07/26 03:57:07;;;;;;;11.50;2.53;;;23.70;96.70;;;;;;5066201;28;20095;-79
2023/07/26 03:59:36;;;;;;;9.30;2.65;;;23.70;96.70;;;;;;5050148;28;20106;-80
2023/07/26 04:02:05;;;;;;;8.65;2.63;;;23.70;96.70;;;;;;5083967;28;20055;-82
2023/07/26 04:04:36;;;;;;;12.35;2.53;;;23.70;96.70;;;;;;5072924;28;20134;-82
2023/07/26 04:07:04;;;;;;;9.43;2.13;;;23.80;96.70;;;;;;5073811;28;20046;-81
2023/07/26 04:09:34;;;;;;;6.72;2.10;;;23.70;96.70;;;;;;5068516;28;20048;-81
2023/07/26 04:12:03;;;;;;;6.75;2.47;;;23.70;96.70;;;;;;5086869;28;20036;-82
2023/07/26 04:14:31;;;;;;;9.02;2.10;;;23.70;96.70;;;;;;5079213;28;20040;-82
2023/07/26 04:16:59;;;;;;;9.55;2.25;;;23.60;96.70;;;;;;5078364;28;20041;-81
2023/07/26 04:19:28;;;;;;;8.88;2.25;;;23.40;96.70;;;;;;5069126;28;20489;-81
2023/07/26 04:21:56;;;;;;;9.25;2.33;;;23.50;96.70;;;;;;5087328;28;20109;-81
2023/07/26 04:24:24;;;;;;;11.88;3.08;;;23.60;96.70;;;;;;5074140;28;20067;-82
2023/07/26 04:26:54;;;;;;;9.82;2.80;;;23.60;96.70;;;;;;5087091;28;20067;-82
2023/07/26 04:29:23;;;;;;;8.30;2.15;;;23.60;96.70;;;;;;5058497;28;20101;-81
2023/07/26 04:31:51;;;;;;;7.97;2.53;;;23.50;96.70;;;;;;5086361;28;20055;-82
2023/07/26 04:34:19;;;;;;;9.77;2.63;;;23.50;96.70;;;;;;5078085;28;20140;-81
2023/07/26 04:36:47;;;;;;;13.23;2.78;;;23.60;96.70;;;;;;5086979;28;20036;-82
2023/07/26 04:39:15;;;;;;;6.22;2.20;;;23.60;96.70;;;;;;5081571;28;20799;-81
2023/07/26 04:41:43;;;;;;;8.27;2.47;;;23.60;96.70;;;;;;5086269;28;20040;-82
2023/07/26 04:44:13;;;;;;;10.75;2.53;;;23.60;96.70;;;;;;5078155;28;20142;-82
2023/07/26 04:46:42;;;;;;;8.15;2.13;;;23.60;96.70;;;;;;5074458;28;20075;-82
2023/07/26 04:49:10;;;;;;;10.15;2.35;;;23.60;96.70;;;;;;5086975;28;20052;-82
2023/07/26 04:51:38;;;;;;;10.80;2.42;;;23.60;96.70;;;;;;5058067;28;20067;-82
2023/07/26 04:54:06;;;;;;;8.07;2.40;;;23.70;96.70;;;;;;5075224;28;20159;-82
2023/07/26 04:56:35;;;;;;;7.15;2.30;;;23.80;96.70;;;;;;5077734;28;20040;-82
2023/07/26 04:59:03;;;;;;;9.20;2.50;;;23.90;96.70;;;;;;5102489;28;20147;-82
2023/07/26 05:01:33;;;;;;;12.50;2.42;;;23.80;96.70;;;;;;5074865;28;20083;-82
2023/07/26 05:04:02;;;;;;;10.25;2.72;;;23.80;96.70;;;;;;5077234;28;20512;-82
2023/07/26 05:06:32;;;;;;;12.52;3.08;;;23.70;96.70;;;;;;5076463;28;20047;-83
2023/07/26 05:09:05;;;;;;;9.38;2.42;;;23.60;96.70;;;;;;5086763;28;20050;-82
2023/07/26 05:11:33;;;;;;;8.75;2.60;;;23.60;96.70;;;;;;5086248;28;20036;-82
2023/07/26 05:14:02;;;;;;;13.35;2.95;;;23.70;96.70;;;;;;5067849;28;20132;-82
2023/07/26 05:16:30;;;;;;;8.98;2.70;;;23.70;96.70;;;;;;5073830;28;20052;-82
2023/07/26 05:19:00;;;;;;;11.07;3.05;;;23.80;96.70;;;;;;5068766;28;20054;-82
2023/07/26 05:21:28;;;;;;;13.13;2.65;;;23.80;96.70;;;;;;5084136;28;20461;-83
2023/07/26 05:23:56;;;;;;;11.88;2.60;;;23.90;96.70;;;;;;5086488;28;20047;-83
2023/07/26 05:26:24;;;;;;;8.95;2.38;;;23.90;96.70;;;;;;5067098;28;20457;-82
2023/07/26 05:28:53;;;;;;;13.00;3.13;;;23.90;96.70;;;;;;5086461;28;20051;-82
2023/07/26 05:31:21;;;;;;;11.45;2.75;;;24.00;96.70;;;;;;5055125;28;20131;-82
2023/07/26 05:33:49;;;;;;;10.80;2.45;;;24.00;96.70;;;;;;5057292;28;20032;-82
2023/07/26 05:36:19;;;;;;;11.13;2.67;;;24.00;96.70;;;;;;5086359;28;20052;-82
2023/07/26 05:38:47;;;;;;;9.25;2.33;;;24.10;96.70;;;;;;5052355;28;20159;-85
2023/07/26 05:41:15;;;;;;;7.63;2.33;;;24.10;96.70;;;;;;5068423;28;20106;-85
2023/07/26 05:43:44;;;;;;;12.85;3.10;;;24.20;96.70;;;;;;5087069;28;20040;-86
2023/07/26 05:46:12;;;;;;;13.52;2.70;;;24.20;96.70;;;;;;5068232;28;20049;-86
2023/07/26 05:48:40;;;;;;;9.73;2.72;;;24.10;96.70;;;;;;5070327;28;20532;-87
2023/07/26 05:51:08;;;;;;;14.18;3.42;;;24.00;96.70;;;;;;5086775;28;20105;-86
2023/07/26 05:53:38;;;;;;;12.90;3.15;;;23.90;96.70;;;;;;5075998;28;20051;-82
2023/07/26 05:56:06;;;;;;;13.85;3.53;;;24.00;96.70;;;;;;5075910;28;20498;-86
2023/07/26 05:58:35;;;;;;;11.27;2.90;;;24.10;96.70;;;;;;5075966;28;20047;-85
2023/07/26 06:01:03;;;;;;;10.00;2.72;;;24.10;96.70;;;;;;5072790;28;20044;-82
2023/07/26 06:03:33;;;;;;;10.70;3.22;;;24.20;96.70;;;;;;5060549;28;20036;-82
2023/07/26 06:06:02;;;;;;;14.55;3.17;;;24.30;96.70;;;;;;5080263;28;20040;-83
2023/07/26 06:08:30;;;;;;;14.57;3.63;;;24.30;96.70;;;;;;5079701;28;20499;-84
2023/07/26 06:11:00;;;;;;;16.20;3.65;;;24.30;96.70;;;;;;5090645;28;20737;-80
2023/07/26 06:13:29;;;;;;;12.25;3.05;;;24.40;96.70;;;;;;5079727;28;20042;-82
2023/07/26 06:15:57;;;;;;;18.00;3.13;;;24.50;96.70;;;;;;5068614;28;20052;-83
2023/07/26 06:18:25;;;;;;;12.77;3.35;;;24.60;96.70;;;;;;5088769;28;20040;-83
2023/07/26 06:20:54;;;;;;;16.00;3.33;;;24.60;96.70;;;;;;5081726;28;20082;-82
2023/07/26 06:23:22;;;;;;;12.40;3.20;;;24.60;96.70;;;;;;5085552;28;20043;-82
2023/07/26 06:25:50;;;;;;;14.10;3.38;;;24.60;96.70;;;;;;5069864;28;20040;-83
2023/07/26 06:28:20;;;;;;;16.25;3.28;;;24.60;96.70;;;;;;5054251;28;20138;-81
2023/07/26 06:30:48;;;;;;;13.90;3.60;;;24.70;96.70;;;;;;5089672;28;20043;-83
2023/07/26 06:33:17;;;;;;;24.33;4.10;;;24.70;96.70;;;;;;5088315;28;20094;-83
2023/07/26 06:35:45;;;;;;;15.10;3.33;;;24.80;96.70;;;;;;5081083;28;20498;-84
2023/07/26 06:38:13;;;;;;;11.18;2.80;;;24.80;96.70;;;;;;5077886;28;20550;-83
2023/07/26 06:40:42;;;;;;;16.73;4.15;;;24.90;96.70;;;;;;5083442;28;20037;-83
2023/07/26 06:43:10;;;;;;;13.55;2.85;;;25.00;96.70;;;;;;5068371;28;20514;-83
2023/07/26 06:45:45;;;;;;;11.63;3.45;;;24.90;96.70;;;;;;5087575;28;20040;-83
2023/07/26 06:48:13;;;;;;;11.85;3.10;;;25.00;96.70;;;;;;5072713;28;20044;-83
2023/07/26 06:50:42;;;;;;;10.35;2.80;;;25.10;96.70;;;;;;5078646;28;20044;-83
2023/07/26 06:53:10;;;;;;;10.48;2.33;;;25.10;96.70;;;;;;5069210;28;20040;-83
2023/07/26 06:55:39;;;;;;;11.82;2.97;;;25.10;96.70;;;;;;5054937;28;20378;-83
2023/07/26 06:58:07;;;;;;;11.95;2.80;;;25.10;96.70;;;;;;5067562;28;20051;-82
2023/07/26 07:00:35;;;;;;;11.50;3.28;;;25.20;96.70;;;;;;5078446;28;20055;-83
2023/07/26 07:03:05;;;;;;;10.27;3.65;;;25.30;96.70;;;;;;5085172;28;20051;-82
2023/07/26 07:05:48;;;;;;;9.98;2.97;;;25.30;96.70;;;;;;5052399;28;20053;-83
2023/07/26 07:08:16;;;;;;;9.40;2.67;;;25.40;96.70;;;;;;5042524;28;20113;-83
2023/07/26 07:10:44;;;;;;;11.43;2.85;;;25.40;96.70;;;;;;5069603;28;20134;-83
2023/07/26 07:13:12;;;;;;;15.38;3.42;;;25.50;96.70;;;;;;5088644;28;20073;-83
2023/07/26 07:15:40;;;;;;;14.05;2.92;;;25.60;96.70;;;;;;5088946;28;20401;-83
2023/07/26 07:18:12;;;;;;;13.50;3.63;;;25.60;96.70;;;;;;5087062;28;20115;-81
2023/07/26 07:20:43;;;;;;;10.75;2.90;;;25.80;96.70;;;;;;5053265;28;20044;-82
2023/07/26 07:23:11;;;;;;;9.43;2.17;;;25.90;96.70;;;;;;5087834;28;20050;-82
2023/07/26 07:25:39;;;;;;;12.57;3.13;;;25.90;96.70;;;;;;5079539;28;20661;-82
2023/07/26 07:28:08;;;;;;;13.68;2.47;;;25.90;96.70;;;;;;5079181;28;20056;-81
2023/07/26 07:30:38;;;;;;;9.95;2.65;;;25.90;96.70;;;;;;5073141;28;20378;-80
2023/07/26 07:33:12;;;;;;;12.95;2.80;;;25.70;96.70;;;;;;5085023;28;20056;-81
2023/07/26 07:35:40;;;;;;;14.02;3.22;;;25.90;96.70;;;;;;5067078;28;20070;-81
2023/07/26 07:38:08;;;;;;;10.85;3.25;;;25.90;96.70;;;;;;5071927;28;20048;-81
2023/07/26 07:40:37;;;;;;;12.55;3.08;;;25.90;96.70;;;;;;5059178;28;20090;-80
2023/07/26 07:43:06;;;;;;;15.50;3.42;;;25.90;96.70;;;;;;5067574;28;20040;-83
2023/07/26 07:45:39;;;;;;;12.77;3.00;;;26.00;96.70;;;;;;5075281;28;20040;-83
2023/07/26 07:48:08;;;;;;;9.82;2.65;;;26.00;96.70;;;;;;5077134;28;20520;-83
2023/07/26 07:50:38;;;;;;;12.45;3.30;;;26.10;96.70;;;;;;5087128;28;20050;-83
2023/07/26 07:53:07;;;;;;;11.23;2.60;;;26.10;96.70;;;;;;5088778;28;20063;-83
2023/07/26 07:55:37;;;;;;;12.90;2.67;;;26.10;96.70;;;;;;5088360;28;20490;-83
2023/07/26 07:58:06;;;;;;;13.82;3.10;;;26.10;96.70;;;;;;5067230;28;20414;-83
2023/07/26 08:00:34;;;;;;;14.00;3.30;;;26.20;96.70;;;;;;5061619;28;20085;-83
2023/07/26 08:03:03;;;;;;;14.02;3.33;;;26.20;96.70;;;;;;5081900;28;20413;-82
2023/07/26 08:05:32;;;;;;;16.02;3.75;;;26.20;96.70;;;;;;5062396;28;20044;-83
2023/07/26 08:08:02;;;;;;;15.25;2.72;;;26.20;96.70;;;;;;5075102;28;20288;-82
2023/07/26 08:10:31;;;;;;;11.93;3.08;;;26.30;96.70;;;;;;5052526;28;20138;-83
2023/07/26 08:12:59;;;;;;;14.68;2.53;;;26.40;96.70;;;;;;5076203;28;20533;-83
2023/07/26 08:15:32;;;;;;;12.15;2.35;;;26.30;96.70;;;;;;5078139;28;20047;-83
2023/07/26 08:18:01;;;;;;;17.60;3.67;;;26.40;96.70;;;;;;5054119;28;20047;-83
2023/07/26 08:20:32;;;;;;;15.32;3.05;;;26.30;96.70;;;;;;5076347;28;20107;-82
2023/07/26 08:23:02;;;;;;;13.38;3.10;;;26.30;96.70;;;;;;5079138;28;20127;-83
2023/07/26 08:25:30;;;;;;;13.90;3.33;;;26.30;96.70;;;;;;5075079;28;20507;-82
2023/07/26 08:27:59;;;;;;;14.02;3.17;;;26.40;96.70;;;;;;5084236;28;20040;-83
2023/07/26 08:30:27;;;;;;;15.05;3.20;;;26.50;96.70;;;;;;5069068;28;20052;-83
2023/07/26 08:32:55;;;;;;;15.95;3.53;;;26.60;96.70;;;;;;5086176;28;20063;-83
2023/07/26 08:35:24;;;;;;;15.55;3.97;;;26.70;96.70;;;;;;5046506;28;20044;-83
2023/07/26 08:37:52;;;;;;;15.73;3.28;;;26.70;96.70;;;;;;5058646;28;20843;-82
2023/07/26 08:40:22;;;;;;;15.63;3.47;;;26.80;96.70;;;;;;5075934;28;20093;-81
2023/07/26 08:42:50;;;;;;;11.80;3.50;;;26.80;96.70;;;;;;5056834;28;20051;-82
2023/07/26 08:45:19;;;;;;;12.35;2.83;;;26.90;96.70;;;;;;5081851;28;20081;-82
2023/07/26 08:47:47;;;;;;;13.88;3.88;;;26.90;96.70;;;;;;5086106;28;20056;-83
2023/07/26 08:50:17;;;;;;;12.50;3.53;;;26.90;96.70;;;;;;5069918;28;20555;-83
2023/07/26 08:52:45;;;;;;;11.73;3.00;;;27.00;96.70;;;;;;5086831;28;20066;-82
2023/07/26 08:55:15;;;;;;;17.75;4.18;;;27.00;96.70;;;;;;5075654;28;20048;-83
2023/07/26 08:57:45;;;;;;;11.57;2.92;;;27.10;96.70;;;;;;5087040;28;20043;-83
2023/07/26 09:00:14;;;;;;;10.05;2.97;;;27.10;96.70;;;;;;5066009;28;20438;-83
2023/07/26 09:02:45;;;;;;;9.68;2.80;;;27.10;96.70;;;;;;5064319;28;20048;-83
2023/07/26 09:05:13;;;;;;;10.05;2.72;;;27.20;96.70;;;;;;5067325;28;20044;-82
2023/07/26 09:07:42;;;;;;;8.60;2.92;;;27.30;96.70;;;;;;5085598;28;20040;-83
2023/07/26 09:10:10;;;;;;;11.77;2.53;;;27.30;96.70;;;;;;5073345;28;20055;-83
2023/07/26 09:12:38;;;;;;;8.02;2.25;;;27.40;96.70;;;;;;5073941;28;20528;-83
2023/07/26 09:15:10;;;;;;;14.00;2.90;;;27.40;96.70;;;;;;5074255;28;20048;-83
2023/07/26 09:17:40;;;;;;;10.98;2.70;;;27.50;96.70;;;;;;5051324;28;20467;-82
2023/07/26 09:20:22;;;;;;;9.98;2.60;;;27.60;96.70;;;;;;5068713;28;20058;-83
2023/07/26 09:22:59;;;;;;;8.13;2.95;;;27.70;96.70;;;;;;5085506;28;20044;-83
2023/07/26 09:25:33;;;;;;;9.80;2.80;;;27.50;96.70;;;;;;5085973;28;20044;-83
2023/07/26 09:28:01;;;;;;;12.88;2.88;;;27.60;96.70;;;;;;5068777;28;20171;-82
2023/07/26 09:30:35;;;;;;;11.27;2.60;;;27.60;96.70;;;;;;5050822;28;20036;-82
2023/07/26 09:33:06;;;;;;;16.58;2.70;;;27.60;96.70;;;;;;5087459;28;20078;-82
2023/07/26 09:35:43;;;;;;;10.60;2.30;;;27.60;96.70;;;;;;5061071;28;20075;-82
2023/07/26 09:38:12;;;;;;;8.93;2.50;;;27.60;96.70;;;;;;5063467;28;20044;-82
2023/07/26 09:40:40;;;;;;;12.88;2.60;;;27.70;96.70;;;;;;5067768;28;20139;-82
2023/07/26 09:43:08;;;;;;;17.42;2.88;;;27.70;96.70;;;;;;5054666;28;20052;-82
2023/07/26 09:45:40;;;;;;;12.73;3.08;;;27.70;96.70;;;;;;5054842;28;20093;-80
2023/07/26 09:48:11;;;;;;;10.13;2.90;;;27.80;96.70;;;;;;5070754;28;20048;-82
2023/07/26 09:50:45;;;;;;;15.63;3.53;;;27.80;96.70;;;;;;5063438;28;20520;-82
2023/07/26 09:53:19;;;;;;;;;;;27.90;96.70;;;;;;5073872;28;20447;-81
2023/07/26 09:55:48;;;;;;;11.38;2.45;;;28.10;96.70;;;;;;5089097;28;20015;-82
2023/07/26 09:58:21;;;;;;;7.07;2.47;;;28.20;96.70;;;;;;5076787;28;20042;-84
2023/07/26 10:00:53;;;;;;;8.93;2.90;;;28.30;96.70;;;;;;5065240;28;20032;-83
2023/07/26 10:03:22;;;;;;;10.27;2.88;;;28.20;96.70;;;;;;5080618;28;20450;-82
2023/07/26 10:05:53;;;;;;;12.52;3.25;;;28.40;96.70;;;;;;5068791;28;20040;-82
2023/07/26 10:08:22;;;;;;;11.90;2.95;;;28.60;96.70;;;;;;5071460;28;20051;-81
2023/07/26 10:10:52;;;;;;;10.18;2.90;;;28.80;96.70;;;;;;5087068;28;20466;-80
2023/07/26 10:13:21;;;;;;;12.82;3.45;;;29.00;96.70;;;;;;5086050;28;20052;-81
2023/07/26 10:15:52;;;;;;;16.10;3.53;;;28.70;96.70;;;;;;5067080;28;20565;-79
2023/07/26 10:18:24;;;;;;;15.50;3.67;;;28.40;96.70;;;;;;5054667;28;20075;-80
2023/07/26 10:20:58;;;;;;;14.20;3.50;;;28.30;96.70;;;;;;5073617;28;20072;-80
2023/07/26 10:23:26;;;;;;;9.55;3.08;;;28.40;96.70;;;;;;5087553;28;20048;-80
2023/07/26 10:25:55;;;;;;;12.57;2.80;;;28.60;96.70;;;;;;5067767;28;20045;-81
2023/07/26 10:28:24;;;;;;;10.68;2.70;;;28.90;96.70;;;;;;5082171;28;20504;-81
2023/07/26 10:30:55;;;;;;;10.18;2.70;;;29.00;96.70;;;;;;5086368;28;20044;-80
2023/07/26 10:33:24;;;;;;;10.93;2.80;;;29.10;96.70;;;;;;5086933;28;20123;-81
2023/07/26 10:35:52;;;;;;;13.65;3.30;;;29.20;96.70;;;;;;5068857;28;20135;-80
2023/07/26 10:38:21;;;;;;;12.25;2.88;;;29.10;96.70;;;;;;5052966;28;20456;-81
2023/07/26 10:40:49;;;;;;;10.77;2.85;;;29.30;96.70;;;;;;5087462;28;20485;-80
2023/07/26 10:43:39;;;;;;;12.43;2.75;;;29.20;96.70;;;;;;5053278;28;20047;-80
2023/07/26 10:46:13;;;;;;;7.40;2.45;;;29.20;96.70;;;;;;5087296;28;20604;-80
2023/07/26 10:48:43;;;;;;;15.10;3.13;;;29.20;96.70;;;;;;5079014;28;20515;-85
2023/07/26 10:51:22;;;;;;;10.68;2.65;;;29.20;96.70;;;;;;5054220;28;20052;-83
2023/07/26 10:53:53;;;;;;;8.00;2.15;;;29.30;96.70;;;;;;5077724;28;20089;-84
2023/07/26 10:56:26;;;;;;;13.82;3.53;;;29.10;96.70;;;;;;5081466;28;20040;-84
2023/07/26 10:58:55;;;;;;;8.05;2.13;;;29.20;96.70;;;;;;5062135;28;20048;-82
2023/07/26 11:01:37;;;;;;;12.85;3.55;;;29.20;96.70;;;;;;5055532;28;20131;-83
2023/07/26 11:04:15;;;;;;;16.20;3.83;;;29.40;96.70;;;;;;5087859;28;20047;-83
2023/07/26 11:06:51;;;;;;;12.18;2.80;;;29.40;96.70;;;;;;5082178;28;20048;-83
2023/07/26 11:09:20;;;;;;;;;;;29.40;96.70;;;;;;5078861;28;20418;-83
2023/07/26 11:11:56;;;;;;;11.55;2.63;;;29.50;96.70;;;;;;5077876;28;19924;-82
2023/07/26 11:14:26;;;;;;;11.20;2.83;;;29.40;96.70;;;;;;5088870;28;20145;-83
2023/07/26 11:16:58;;;;;;;14.40;3.58;;;29.60;96.70;;;;;;5054708;28;20056;-84
2023/07/26 11:19:29;;;;;;;8.15;2.83;;;29.90;96.70;;;;;;5071039;28;20063;-82
2023/07/26 11:22:04;;;;;;;10.00;2.47;;;29.90;96.70;;;;;;5051565;28;20071;-83
2023/07/26 11:24:33;;;;;;;14.97;2.80;;;29.80;96.70;;;;;;5086733;28;20068;-82
2023/07/26 11:27:06;;;;;;;11.02;2.97;;;29.90;96.70;;;;;;5085997;28;20304;-81
2023/07/26 11:29:35;;;;;;;12.05;2.65;;;29.80;96.70;;;;;;5099975;28;20149;-81
2023/07/26 11:32:05;;;;;;;11.13;3.10;;;29.80;96.70;;;;;;5057249;28;20121;-82
2023/07/26 11:34:34;;;;;;;11.20;2.70;;;29.90;96.70;;;;;;5085692;28;20040;-81
2023/07/26 11:37:11;;;;;;;10.73;2.97;;;29.90;96.70;;;;;;5071778;28;20594;-83
2023/07/26 11:39:40;;;;;;;11.13;2.58;;;30.10;96.70;;;;;;5058825;28;20097;-80
2023/07/26 11:42:08;;;;;;;10.65;2.70;;;29.90;96.70;;;;;;5085481;28;20044;-81
2023/07/26 11:44:43;;;;;;;11.38;2.50;;;30.00;96.70;;;;;;5062001;28;20506;-85
2023/07/26 11:47:13;;;;;;;12.50;2.67;;;30.00;96.70;;;;;;5075706;28;20151;-84
2023/07/26 11:49:41;;;;;;;8.93;2.58;;;30.00;96.70;;;;;;5083408;28;20310;-82
2023/07/26 11:52:16;;;;;;;11.90;3.22;;;30.10;96.70;;;;;;5070732;28;20246;-84
2023/07/26 11:55:04;;;;;;;9.27;2.58;;;30.30;96.70;;;;;;5069423;28;20851;-84
2023/07/26 11:57:32;;;;;;;12.15;3.65;;;30.30;96.70;;;;;;5069594;28;20059;-83
2023/07/26 12:00:03;;;;;;;9.80;2.17;;;30.40;96.70;;;;;;5064338;28;20048;-84
2023/07/26 12:02:41;;;;;;;7.35;2.05;;;30.50;96.70;;;;;;5062818;28;20059;-84
2023/07/26 12:05:19;;;;;;;9.35;2.28;;;30.40;96.70;;;;;;5050504;28;20078;-83
2023/07/26 12:07:49;;;;;;;10.02;2.70;;;30.50;96.70;;;;;;5104273;27;20134;-84
2023/07/26 12:10:27;;;;;;;8.25;2.40;;;30.40;96.70;;;;;;5075632;28;20081;-83
2023/07/26 12:12:57;;;;;;;8.07;2.00;;;30.30;96.70;;;;;;5088475;28;20498;-83
2023/07/26 12:15:25;;;;;;;8.70;2.30;;;30.50;96.70;;;;;;5070546;28;20509;-84
2023/07/26 12:17:56;;;;;;;8.82;2.30;;;30.60;96.70;;;;;;5044518;28;20139;-84
2023/07/26 12:20:24;;;;;;;9.20;2.60;;;30.70;96.70;;;;;;5052761;28;21099;-82
2023/07/26 12:23:06;;;;;;;9.82;2.10;;;30.40;96.70;;;;;;5087808;28;20048;-81
2023/07/26 12:25:36;;;;;;;10.20;2.45;;;30.60;96.70;;;;;;5066752;28;20106;-81
2023/07/26 12:28:06;;;;;;;8.98;2.60;;;30.50;96.70;;;;;;5074859;28;20485;-81
2023/07/26 12:30:34;;;;;;;13.85;3.08;;;30.40;96.70;;;;;;5052610;28;20141;-83
2023/07/26 12:33:11;;;;;;;10.68;2.67;;;30.70;96.70;;;;;;5087611;28;20089;-83
2023/07/26 12:35:40;;;;;;;8.52;2.25;;;30.70;96.70;;;;;;5066165;28;20733;-83
2023/07/26 12:38:13;;;;;;;7.63;1.92;;;30.60;96.70;;;;;;5077210;28;20439;-83
2023/07/26 12:40:41;;;;;;;10.68;2.55;;;30.70;96.70;;;;;;5087609;28;20036;-83
2023/07/26 12:43:26;;;;;;;8.13;2.35;;;30.80;96.70;;;;;;5076266;28;20046;-83
2023/07/26 12:45:55;;;;;;;9.00;2.20;;;30.90;96.70;;;;;;5085920;28;20048;-83
2023/07/26 12:48:25;;;;;;;10.02;3.03;;;30.80;96.70;;;;;;5074958;28;20318;-83
2023/07/26 12:50:54;;;;;;;5.68;1.70;;;30.80;96.70;;;;;;5064604;28;20056;-81
2023/07/26 12:53:23;;;;;;;12.85;4.35;;;30.80;96.70;;;;;;5086944;28;20437;-82